This is the latest recevied weather packets stored in our database for station/object N8XHB. If no packets are shown the sender has not sent any weather packets the latest 10 day(s).
| Time | Temp. | Humidity | Pressure | Rain* | Wind** | Luminosity | Snow |
|---|---|---|---|---|---|---|---|
| 1778006641 | 12.22° C | 37% | 1008.7 hPa | 0 mm | - | 388 W/m² | - |
| 1778006338 | 12.22° C | 36% | 1008.5 hPa | 0 mm | - | 408 W/m² | - |
| 1778006035 | 12.78° C | 36% | 1008.5 hPa | 0 mm | - | 373 W/m² | - |
| 1778005732 | 12.78° C | 34% | 1008.4 hPa | 0 mm | - | 380 W/m² | - |
| 1778005429 | 12.78° C | 34% | 1008.4 hPa | 0 mm | - | 453 W/m² | - |
| 1778005125 | 12.78° C | 34% | 1008.1 hPa | 0 mm | - | 448 W/m² | - |
| 1778004823 | 12.78° C | 34% | 1008.4 hPa | 0 mm | - | 457 W/m² | - |
| 1778004519 | 12.78° C | 36% | 1008.4 hPa | 0 mm | - | 447 W/m² | - |
| 1778004216 | 12.78° C | 34% | 1008.4 hPa | 0 mm | - | 394 W/m² | - |
| 1778003912 | 12.78° C | 35% | 1008.5 hPa | 0 mm | - | 384 W/m² | - |
| 1778003609 | 13.33° C | 32% | 1008.2 hPa | 0 mm | - | 366 W/m² | - |
| 1778003305 | 14.44° C | 30% | 1008.2 hPa | 0 mm | - | 453 W/m² | - |
| 1778003003 | 13.89° C | 35% | 1008.2 hPa | 0 mm | - | 721 W/m² | - |
| 1778002699 | 13.89° C | 35% | 1007.9 hPa | 0 mm | - | 682 W/m² | - |
| 1778002395 | 13.33° C | 35% | 1007.8 hPa | 0 mm | - | 713 W/m² | - |
| 1778002093 | 13.33° C | 30% | 1008.1 hPa | 0 mm | - | 786 W/m² | - |
| 1778001790 | 13.33° C | 35% | 1007.7 hPa | 0 mm | - | 676 W/m² | - |
| 1778001485 | 12.78° C | 33% | 1007.9 hPa | 0 mm | - | 716 W/m² | - |
| 1778001181 | 12.22° C | 35% | 1007.5 hPa | 0 mm | - | 524 W/m² | - |
| 1778000878 | 12.78° C | 30% | 1007.5 hPa | 0 mm | - | 413 W/m² | - |
| 1778000575 | 12.22° C | 35% | 1007.6 hPa | 0 mm | - | 619 W/m² | - |
| 1778000276 | 12.78° C | 32% | 1007.6 hPa | 0 mm | - | 684 W/m² | - |
| 1777999972 | 12.22° C | 32% | 1007.7 hPa | 0 mm | - | 694 W/m² | - |
| 1777999668 | 12.22° C | 33% | 1007.7 hPa | 0 mm | - | 757 W/m² | - |
| 1777999365 | 12.22° C | 31% | 1007.9 hPa | 0 mm | - | 654 W/m² | - |
* Rain latest hour (hover to see other rain measurements)
** Current wind speed in m/s (hover to see current wind gust speed)